Time;durP1;ratioP1;P1;durP2;ratioP2;P2;SDS_P1;SDS_P2;PMS_P1;PMS_P2;Temp;Humidity;BMP_temperature;BMP_pressure;BME280_temperature;BME280_humidity;BME280_pressure;Samples;Min_cycle;Max_cycle;Signal;HPM_P1;HPM_P2
2021/03/06 00:01:46;;;;;;;3.60;2.12;;;3.50;92.10;;;;;;1693332;84;21153;-73
2021/03/06 00:04:14;;;;;;;7.30;2.15;;;3.40;91.80;;;;;;1693208;84;21160;-73
2021/03/06 00:06:43;;;;;;;4.70;2.12;;;3.30;91.60;;;;;;1693303;85;21599;-72
2021/03/06 00:09:11;;;;;;;4.30;2.25;;;3.40;91.30;;;;;;1693252;84;21156;-73
2021/03/06 00:11:39;;;;;;;4.00;2.50;;;3.30;91.20;;;;;;1693237;85;21161;-73
2021/03/06 00:14:07;;;;;;;4.53;2.40;;;3.20;90.60;;;;;;1693418;84;21618;-73
2021/03/06 00:16:36;;;;;;;3.83;2.08;;;3.10;91.30;;;;;;1693227;84;21189;-71
2021/03/06 00:19:04;;;;;;;3.55;2.20;;;3.10;91.10;;;;;;1693234;84;21152;-72
2021/03/06 00:21:32;;;;;;;4.83;2.35;;;2.90;90.90;;;;;;1693233;84;21156;-73
2021/03/06 00:24:00;;;;;;;5.03;2.27;;;3.00;91.10;;;;;;1693207;84;21157;-72
2021/03/06 00:26:28;;;;;;;5.25;2.00;;;3.00;90.80;;;;;;1693395;85;21148;-72
2021/03/06 00:28:58;;;;;;;4.72;2.30;;;2.90;90.30;;;;;;1693349;85;21125;-71
2021/03/06 00:31:26;;;;;;;4.42;2.30;;;3.00;90.30;;;;;;1693385;85;21169;-72
2021/03/06 00:33:55;;;;;;;4.65;2.10;;;3.00;90.10;;;;;;1693915;84;21140;-72
2021/03/06 00:36:24;;;;;;;3.50;1.90;;;3.10;89.30;;;;;;1693195;83;21624;-72
2021/03/06 00:38:53;;;;;;;7.00;2.17;;;3.10;88.20;;;;;;1693483;85;21188;-72
2021/03/06 00:41:22;;;;;;;4.53;2.12;;;3.00;87.60;;;;;;1693316;84;21622;-73
2021/03/06 00:43:59;;;;;;;3.02;1.87;;;3.00;87.60;;;;;;1693207;84;21176;-72
2021/03/06 00:46:29;;;;;;;6.17;2.67;;;3.00;88.10;;;;;;1693328;84;21156;-73
2021/03/06 00:48:59;;;;;;;3.45;1.70;;;3.00;88.20;;;;;;1693514;85;21590;-73
2021/03/06 00:51:29;;;;;;;3.47;1.80;;;3.00;88.00;;;;;;1693338;85;21184;-72
2021/03/06 00:53:59;;;;;;;4.35;2.25;;;3.00;87.40;;;;;;1693941;84;21169;-73
2021/03/06 00:56:29;;;;;;;3.65;1.82;;;3.00;86.90;;;;;;1693544;85;21121;-72
2021/03/06 00:58:57;;;;;;;3.83;2.33;;;2.90;86.40;;;;;;1693364;84;21184;-72
2021/03/06 01:01:25;;;;;;;3.22;1.67;;;2.70;86.10;;;;;;1693552;85;21167;-73
2021/03/06 01:03:54;;;;;;;3.40;1.85;;;2.80;86.90;;;;;;1693500;85;21160;-72
2021/03/06 01:06:22;;;;;;;4.00;1.80;;;2.80;86.30;;;;;;1693410;84;21594;-72
2021/03/06 01:08:50;;;;;;;6.42;2.00;;;2.90;85.70;;;;;;1693650;85;21606;-73
2021/03/06 01:11:21;;;;;;;3.37;1.90;;;2.90;84.50;;;;;;1693386;84;21132;-70
2021/03/06 01:13:49;;;;;;;4.37;1.62;;;2.70;83.90;;;;;;1693342;84;21164;-73
2021/03/06 01:16:17;;;;;;;3.77;1.98;;;2.80;84.10;;;;;;1693516;84;21157;-72
2021/03/06 01:18:53;;;;;;;5.75;2.02;;;2.80;83.40;;;;;;1679404;85;21152;-72
2021/03/06 01:21:22;;;;;;;3.85;2.08;;;2.70;83.40;;;;;;1693499;85;21567;-72
2021/03/06 01:23:59;;;;;;;4.40;2.02;;;2.70;83.90;;;;;;1693419;85;21180;-73
2021/03/06 01:26:29;;;;;;;3.98;1.87;;;2.70;83.90;;;;;;1693008;84;21582;-73
2021/03/06 01:28:58;;;;;;;5.05;2.22;;;2.60;83.80;;;;;;1693306;85;21152;-72
2021/03/06 01:31:26;;;;;;;4.25;1.95;;;2.70;83.70;;;;;;1693424;84;21602;-72
2021/03/06 01:33:55;;;;;;;4.53;1.90;;;2.60;83.90;;;;;;1693508;85;21169;-73
2021/03/06 01:36:23;;;;;;;5.03;1.80;;;2.70;84.20;;;;;;1693494;83;21180;-72
2021/03/06 01:38:51;;;;;;;5.60;2.00;;;2.80;82.90;;;;;;1694084;85;21156;-72
2021/03/06 01:41:19;;;;;;;5.25;1.92;;;2.90;82.20;;;;;;1694199;85;21125;-72
2021/03/06 01:43:47;;;;;;;4.00;1.72;;;2.80;80.90;;;;;;1693742;85;21295;-72
2021/03/06 01:46:16;;;;;;;4.47;1.90;;;3.00;81.10;;;;;;1694058;84;21172;-72
2021/03/06 01:48:44;;;;;;;4.85;2.27;;;2.90;79.40;;;;;;1694018;85;21582;-71
2021/03/06 01:51:12;;;;;;;4.75;2.27;;;2.90;79.00;;;;;;1693940;84;21286;-70
2021/03/06 01:53:41;;;;;;;4.37;2.00;;;2.80;79.20;;;;;;1694084;84;21156;-72
2021/03/06 01:56:14;;;;;;;4.33;2.02;;;2.80;78.40;;;;;;1694108;85;21140;-72
2021/03/06 01:58:42;;;;;;;3.75;1.70;;;2.80;77.80;;;;;;1693984;85;21164;-70
2021/03/06 02:01:11;;;;;;;4.58;2.12;;;2.80;79.30;;;;;;1693855;84;21737;-72
2021/03/06 02:03:39;;;;;;;4.78;2.22;;;2.80;77.20;;;;;;1693762;84;21307;-72
2021/03/06 02:06:08;;;;;;;7.22;2.10;;;2.60;77.30;;;;;;1693956;85;21169;-72
2021/03/06 02:08:38;;;;;;;6.10;2.52;;;2.60;77.40;;;;;;1693573;84;21611;-73
2021/03/06 02:11:07;;;;;;;7.33;2.70;;;2.50;77.30;;;;;;1694066;84;21440;-72
2021/03/06 02:14:10;;;;;;;4.50;2.45;;;2.50;77.00;;;;;;1693807;84;21286;-72
2021/03/06 02:16:49;;;;;;;5.58;2.47;;;2.40;76.90;;;;;;1693833;84;21279;-73
2021/03/06 02:20:00;;;;;;;5.55;2.20;;;2.30;76.60;;;;;;1693556;84;21183;-72
2021/03/06 02:23:02;;;;;;;6.28;2.75;;;2.30;76.80;;;;;;1693976;84;21176;-72
2021/03/06 02:25:54;;;;;;;7.62;2.67;;;2.30;77.00;;;;;;1652188;87;21194;-72
2021/03/06 02:28:45;;;;;;;5.70;2.30;;;2.40;77.30;;;;;;1649283;87;21204;-72
2021/03/06 02:31:29;;;;;;;7.58;2.85;;;2.30;77.10;;;;;;1780943;79;22414;-70
2021/03/06 02:34:12;;;;;;;6.72;2.80;;;2.20;77.10;;;;;;1753911;82;21157;-71
2021/03/06 02:36:50;;;;;;;4.83;2.17;;;2.10;76.80;;;;;;1746075;82;21593;-72
2021/03/06 02:39:21;;;;;;;5.87;2.30;;;2.10;77.40;;;;;;1753933;81;21584;-72
2021/03/06 02:41:55;;;;;;;7.12;2.80;;;2.10;77.60;;;;;;1754019;82;21126;-71
2021/03/06 02:44:27;;;;;;;5.50;2.55;;;2.10;76.50;;;;;;1754135;82;21130;-70
2021/03/06 02:46:59;;;;;;;4.78;2.30;;;2.10;76.80;;;;;;1754155;81;21560;-71
2021/03/06 02:49:27;;;;;;;6.30;2.70;;;2.10;77.20;;;;;;1753900;81;21157;-71
2021/03/06 02:51:56;;;;;;;6.33;2.85;;;2.10;77.30;;;;;;1753943;81;21165;-71
2021/03/06 02:54:24;;;;;;;6.17;2.20;;;2.10;77.40;;;;;;1754102;82;21145;-71
2021/03/06 02:56:55;;;;;;;5.28;2.45;;;2.10;77.40;;;;;;1754022;82;21631;-70
2021/03/06 02:59:42;;;;;;;6.33;2.92;;;2.10;77.40;;;;;;1754352;82;21138;-71
2021/03/06 03:02:36;;;;;;;6.28;3.02;;;2.10;77.20;;;;;;1752928;82;21142;-71
2021/03/06 03:05:52;;;;;;;5.75;2.60;;;2.10;77.10;;;;;;1753924;81;21560;-72
2021/03/06 03:08:44;;;;;;;6.15;2.80;;;2.00;77.40;;;;;;1752652;82;21138;-71
2021/03/06 03:11:19;;;;;;;5.30;2.83;;;2.10;76.90;;;;;;1754185;82;21162;-72
2021/03/06 03:13:52;;;;;;;6.67;3.35;;;2.10;76.00;;;;;;1753847;82;21153;-72
2021/03/06 03:16:43;;;;;;;6.97;3.08;;;2.00;76.30;;;;;;1753466;82;21133;-72
2021/03/06 03:19:19;;;;;;;7.87;2.98;;;1.90;76.60;;;;;;1754099;82;21149;-72
2021/03/06 03:21:55;;;;;;;6.50;2.15;;;1.70;76.80;;;;;;1753819;81;21577;-72
2021/03/06 03:24:25;;;;;;;6.65;2.87;;;1.90;77.50;;;;;;1754005;81;21581;-72
2021/03/06 03:26:56;;;;;;;5.75;2.90;;;2.00;76.70;;;;;;1754201;81;21129;-72
2021/03/06 03:29:26;;;;;;;7.58;3.27;;;2.00;76.00;;;;;;1753931;81;21585;-72
2021/03/06 03:31:56;;;;;;;8.45;3.60;;;2.00;75.40;;;;;;1754741;81;21125;-72
2021/03/06 03:34:26;;;;;;;7.65;2.60;;;1.90;75.90;;;;;;1754804;82;21118;-72
2021/03/06 03:36:55;;;;;;;7.22;3.35;;;1.90;76.10;;;;;;1755000;82;21118;-72
2021/03/06 03:39:27;;;;;;;7.15;3.50;;;1.90;75.80;;;;;;1754682;81;21153;-72
2021/03/06 03:41:56;;;;;;;8.75;3.20;;;2.00;75.30;;;;;;1754329;82;21137;-72
2021/03/06 03:44:25;;;;;;;6.47;2.85;;;2.20;75.30;;;;;;1754157;81;21149;-72
2021/03/06 03:46:55;;;;;;;7.62;3.62;;;2.20;74.60;;;;;;1754159;82;21149;-73
2021/03/06 03:49:25;;;;;;;8.20;3.52;;;2.00;74.10;;;;;;1754391;82;21170;-73
2021/03/06 03:51:55;;;;;;;7.58;3.25;;;1.90;74.40;;;;;;1754114;81;21129;-73
2021/03/06 03:54:23;;;;;;;9.85;4.05;;;1.90;74.50;;;;;;1754515;82;21157;-73
2021/03/06 03:56:51;;;;;;;6.95;3.17;;;1.90;74.50;;;;;;1754136;82;21158;-73
2021/03/06 03:59:26;;;;;;;7.53;3.40;;;1.90;75.00;;;;;;1753561;82;21129;-73
2021/03/06 04:01:54;;;;;;;8.85;3.35;;;1.90;75.00;;;;;;1754156;81;21169;-72
2021/03/06 04:04:31;;;;;;;8.20;4.00;;;1.90;75.20;;;;;;1754344;82;21572;-73
2021/03/06 04:07:01;;;;;;;8.30;3.22;;;1.90;75.10;;;;;;1754214;81;21526;-72
2021/03/06 04:09:30;;;;;;;8.08;3.45;;;1.80;75.20;;;;;;1754320;82;21174;-72
2021/03/06 04:12:00;;;;;;;7.78;3.35;;;1.70;75.50;;;;;;1754121;82;21150;-71
2021/03/06 04:14:28;;;;;;;9.58;3.85;;;1.70;75.90;;;;;;1754289;81;21157;-72
2021/03/06 04:16:56;;;;;;;8.70;3.92;;;1.70;75.40;;;;;;1754110;82;21178;-70
2021/03/06 04:19:25;;;;;;;8.80;4.10;;;1.60;75.70;;;;;;1754315;81;21564;-72
2021/03/06 04:21:54;;;;;;;8.08;3.80;;;1.60;75.60;;;;;;1754129;82;21158;-71
2021/03/06 04:24:23;;;;;;;10.20;3.87;;;1.80;75.40;;;;;;1754221;82;21181;-72
2021/03/06 04:26:51;;;;;;;10.82;3.62;;;1.70;75.20;;;;;;1754312;82;21157;-72
2021/03/06 04:29:22;;;;;;;9.40;3.67;;;1.60;75.20;;;;;;1754079;81;21122;-71
2021/03/06 04:31:55;;;;;;;6.65;2.90;;;1.70;75.40;;;;;;1753184;82;21157;-72
2021/03/06 04:34:24;;;;;;;9.20;4.00;;;1.90;75.10;;;;;;1754104;81;21157;-72
2021/03/06 04:36:59;;;;;;;7.87;3.42;;;1.80;74.00;;;;;;1754419;82;21137;-71
2021/03/06 04:39:27;;;;;;;8.50;3.50;;;1.90;74.20;;;;;;1754132;81;21161;-71
2021/03/06 04:41:55;;;;;;;7.47;3.25;;;1.90;73.80;;;;;;1754185;81;21616;-72
2021/03/06 04:44:27;;;;;;;8.75;3.30;;;1.90;73.80;;;;;;1754131;81;21102;-71
2021/03/06 04:46:56;;;;;;;11.55;3.60;;;1.90;74.10;;;;;;1754311;82;21150;-71
2021/03/06 04:49:29;;;;;;;7.95;3.30;;;1.90;73.70;;;;;;1754384;82;21149;-71
2021/03/06 04:51:59;;;;;;;8.88;3.17;;;1.90;73.80;;;;;;1754309;82;21588;-71
2021/03/06 04:54:27;;;;;;;9.98;3.90;;;2.00;74.10;;;;;;1754232;82;21591;-72
2021/03/06 04:56:57;;;;;;;7.42;3.30;;;1.90;73.20;;;;;;1752238;82;21165;-71
2021/03/06 04:59:28;;;;;;;8.03;4.30;;;2.00;73.30;;;;;;1754313;81;21103;-71
2021/03/06 05:01:56;;;;;;;8.85;4.10;;;2.10;73.20;;;;;;1754202;81;21153;-70
2021/03/06 05:04:25;;;;;;;7.72;3.25;;;1.90;73.00;;;;;;1754280;82;21122;-71
2021/03/06 05:06:52;;;;;;;7.12;3.25;;;1.80;73.50;;;;;;1754344;81;21144;-72
2021/03/06 05:09:22;;;;;;;7.83;3.62;;;1.90;73.40;;;;;;1754153;81;21588;-72
2021/03/06 05:11:51;;;;;;;6.40;3.30;;;1.90;73.40;;;;;;1754070;82;21146;-71
2021/03/06 05:14:19;;;;;;;5.42;2.70;;;1.80;72.80;;;;;;1754022;81;21153;-71
2021/03/06 05:16:47;;;;;;;11.15;2.80;;;1.80;72.80;;;;;;1754082;81;21181;-71
2021/03/06 05:19:18;;;;;;;8.88;3.25;;;1.80;72.10;;;;;;1753165;82;21157;-71
2021/03/06 05:21:46;;;;;;;7.50;3.52;;;1.90;72.60;;;;;;1754432;81;21336;-71
2021/03/06 05:24:14;;;;;;;8.33;3.12;;;1.80;72.50;;;;;;1754462;81;21156;-69
2021/03/06 05:26:43;;;;;;;8.90;3.65;;;1.60;72.90;;;;;;1754164;81;21580;-71
2021/03/06 05:29:11;;;;;;;7.45;3.27;;;1.50;73.50;;;;;;1754064;81;21158;-72
2021/03/06 05:31:41;;;;;;;10.53;3.80;;;1.40;74.50;;;;;;1742977;81;21182;-71
2021/03/06 05:34:09;;;;;;;13.78;3.42;;;1.40;74.10;;;;;;1740047;82;21305;-71
2021/03/06 05:36:37;;;;;;;8.25;3.35;;;1.40;74.20;;;;;;1740188;82;21297;-70
2021/03/06 05:39:05;;;;;;;8.90;3.35;;;1.50;74.30;;;;;;1740059;82;21292;-71
2021/03/06 05:41:38;;;;;;;9.68;4.35;;;1.50;74.30;;;;;;1740240;82;21284;-72
2021/03/06 05:44:06;;;;;;;8.55;3.35;;;1.40;74.20;;;;;;1740040;82;21142;-72
2021/03/06 05:46:36;;;;;;;7.53;3.40;;;1.50;74.20;;;;;;1740023;82;21276;-72
2021/03/06 05:49:08;;;;;;;8.85;3.50;;;1.40;74.00;;;;;;1740034;82;21114;-72
2021/03/06 05:51:38;;;;;;;11.00;4.30;;;1.30;74.60;;;;;;1740049;82;21609;-72
2021/03/06 05:54:10;;;;;;;7.42;3.50;;;1.40;74.20;;;;;;1740038;82;21324;-71
2021/03/06 05:56:44;;;;;;;8.35;3.70;;;1.60;74.20;;;;;;1740032;82;21133;-72
2021/03/06 05:59:14;;;;;;;7.83;3.35;;;1.60;73.60;;;;;;1740237;82;21274;-72
2021/03/06 06:01:43;;;;;;;8.43;4.08;;;1.50;73.40;;;;;;1740402;82;21150;-72
2021/03/06 06:04:11;;;;;;;7.55;2.67;;;1.40;73.30;;;;;;1740106;82;21276;-72
2021/03/06 06:06:39;;;;;;;11.90;3.45;;;1.40;73.70;;;;;;1740391;82;21277;-72
2021/03/06 06:09:08;;;;;;;8.45;3.67;;;1.40;73.80;;;;;;1740248;82;21162;-73
2021/03/06 06:11:36;;;;;;;7.58;3.72;;;1.60;73.00;;;;;;1740113;82;21620;-72
2021/03/06 06:14:06;;;;;;;7.58;3.52;;;1.60;72.80;;;;;;1739999;82;21143;-72
2021/03/06 06:16:37;;;;;;;9.70;3.40;;;1.60;73.10;;;;;;1740098;82;21145;-72
2021/03/06 06:19:06;;;;;;;6.53;3.22;;;1.60;72.90;;;;;;1740013;82;21284;-72
2021/03/06 06:21:49;;;;;;;7.15;3.35;;;1.70;73.50;;;;;;1740187;82;21261;-71
2021/03/06 06:24:19;;;;;;;9.93;4.20;;;1.80;73.00;;;;;;1740023;82;21276;-71
2021/03/06 06:26:58;;;;;;;10.80;4.15;;;1.80;72.30;;;;;;1740028;82;21138;-71
2021/03/06 06:29:42;;;;;;;7.65;3.25;;;1.70;71.70;;;;;;1740213;82;21320;-72
2021/03/06 06:32:17;;;;;;;10.10;3.92;;;2.00;72.00;;;;;;1751982;81;21157;-72
2021/03/06 06:35:09;;;;;;;9.40;3.80;;;2.00;71.20;;;;;;1754239;82;21129;-71
2021/03/06 06:37:37;;;;;;;9.80;3.75;;;2.10;71.10;;;;;;1754213;82;21206;-73
2021/03/06 06:40:24;;;;;;;10.82;3.50;;;2.20;70.90;;;;;;1754113;82;21118;-72
2021/03/06 06:42:52;;;;;;;12.93;4.20;;;2.10;69.90;;;;;;1754170;82;21141;-72
2021/03/06 06:45:24;;;;;;;7.90;3.30;;;1.90;69.60;;;;;;1754028;81;21146;-73
2021/03/06 06:47:53;;;;;;;10.45;4.50;;;2.00;70.10;;;;;;1754080;81;21157;-72
2021/03/06 06:50:31;;;;;;;7.33;3.50;;;2.10;69.40;;;;;;1726631;82;21169;-72
2021/03/06 06:53:00;;;;;;;8.45;3.45;;;2.00;70.10;;;;;;1754195;81;21134;-72
2021/03/06 06:55:40;;;;;;;8.00;3.62;;;2.10;69.90;;;;;;1754158;82;21137;-73
2021/03/06 06:58:08;;;;;;;13.58;4.62;;;2.00;69.60;;;;;;1754404;81;21149;-72
2021/03/06 07:00:36;;;;;;;8.88;3.67;;;2.00;69.80;;;;;;1753996;81;21161;-72
2021/03/06 07:03:06;;;;;;;8.25;3.52;;;1.90;69.70;;;;;;1754163;81;21165;-72
2021/03/06 07:05:40;;;;;;;9.20;3.22;;;1.90;69.40;;;;;;1754181;81;21134;-72
2021/03/06 07:08:25;;;;;;;8.53;3.90;;;1.90;69.90;;;;;;1754077;82;21174;-72
2021/03/06 07:10:53;;;;;;;10.05;3.40;;;1.90;70.20;;;;;;1754085;81;21591;-72
2021/03/06 07:13:31;;;;;;;9.25;3.30;;;1.90;70.40;;;;;;1754140;81;21162;-71
2021/03/06 07:15:59;;;;;;;8.20;3.35;;;2.00;70.00;;;;;;1751478;82;21165;-72
2021/03/06 07:18:28;;;;;;;8.35;3.60;;;2.20;69.40;;;;;;1754155;81;21169;-72
2021/03/06 07:20:57;;;;;;;9.20;3.75;;;2.20;68.90;;;;;;1754132;81;21168;-72
2021/03/06 07:23:27;;;;;;;7.30;3.22;;;2.50;68.60;;;;;;1753165;82;21612;-72
2021/03/06 07:25:59;;;;;;;7.42;3.35;;;2.40;68.00;;;;;;1754568;81;21122;-72
2021/03/06 07:28:28;;;;;;;8.58;3.27;;;2.50;66.40;;;;;;1754359;81;21133;-70
2021/03/06 07:30:58;;;;;;;9.53;3.17;;;2.60;66.10;;;;;;1754231;81;21173;-72
2021/03/06 07:33:27;;;;;;;7.37;3.40;;;2.70;65.90;;;;;;1754169;81;21145;-72
2021/03/06 07:35:56;;;;;;;9.80;3.15;;;2.70;65.40;;;;;;1754300;81;21177;-72
2021/03/06 07:38:25;;;;;;;7.30;2.92;;;2.90;65.20;;;;;;1754154;81;21153;-71
2021/03/06 07:40:58;;;;;;;6.72;2.87;;;3.10;64.50;;;;;;1754144;82;21146;-72
2021/03/06 07:43:30;;;;;;;9.80;3.65;;;3.20;63.10;;;;;;1754041;82;21130;-71
2021/03/06 07:46:01;;;;;;;6.78;2.80;;;3.20;63.20;;;;;;1754299;82;21102;-72
2021/03/06 07:48:42;;;;;;;6.83;3.05;;;3.20;62.70;;;;;;1754521;81;21145;-72
2021/03/06 07:51:12;;;;;;;8.63;3.08;;;3.30;62.40;;;;;;1754277;81;21190;-72
2021/03/06 07:53:46;;;;;;;7.37;2.98;;;3.30;61.60;;;;;;1754235;81;21118;-71
2021/03/06 07:56:18;;;;;;;6.03;2.67;;;3.30;61.50;;;;;;1754318;81;21552;-72
2021/03/06 07:58:49;;;;;;;6.85;2.90;;;3.40;61.10;;;;;;1754102;81;21185;-72
2021/03/06 08:01:32;;;;;;;7.37;2.70;;;3.40;59.70;;;;;;1754139;81;21149;-73
2021/03/06 08:04:13;;;;;;;6.47;2.90;;;4.50;58.10;;;;;;1754206;81;21577;-72
2021/03/06 08:06:43;;;;;;;5.87;2.60;;;5.70;55.40;;;;;;1748575;82;21177;-72
2021/03/06 08:09:12;;;;;;;6.42;3.08;;;6.90;52.60;;;;;;1754284;81;21118;-72
2021/03/06 08:11:46;;;;;;;7.95;3.20;;;8.10;49.30;;;;;;1754552;82;21162;-72
2021/03/06 08:14:30;;;;;;;7.15;3.72;;;8.60;45.90;;;;;;1754207;81;21162;-73
2021/03/06 08:16:58;;;;;;;7.67;3.52;;;8.90;45.60;;;;;;1748762;82;21498;-72
2021/03/06 08:19:30;;;;;;;5.85;3.42;;;9.10;44.60;;;;;;1754348;82;21287;-73
2021/03/06 08:22:16;;;;;;;9.00;3.98;;;8.90;44.00;;;;;;1754095;81;21148;-73
2021/03/06 08:24:45;;;;;;;11.78;3.80;;;9.00;44.70;;;;;;1754399;81;21126;-73
2021/03/06 08:27:15;;;;;;;6.90;3.37;;;9.40;45.10;;;;;;1754140;82;21145;-73
2021/03/06 08:29:56;;;;;;;8.03;3.55;;;9.50;43.10;;;;;;1754271;82;21161;-73
2021/03/06 08:32:35;;;;;;;6.00;3.30;;;9.80;42.60;;;;;;1744162;81;21592;-73
2021/03/06 08:35:22;;;;;;;7.03;3.20;;;10.20;41.80;;;;;;1740068;82;21115;-73
2021/03/06 08:37:52;;;;;;;7.62;3.37;;;10.40;41.60;;;;;;1740266;82;21672;-73
2021/03/06 08:40:27;;;;;;;7.47;3.08;;;10.60;39.90;;;;;;1740076;82;21300;-73
2021/03/06 08:42:57;;;;;;;6.03;3.55;;;9.90;40.30;;;;;;1740089;82;21280;-74
2021/03/06 08:45:28;;;;;;;8.38;3.30;;;9.60;41.70;;;;;;1740087;82;21141;-74
2021/03/06 08:48:03;;;;;;;6.78;3.83;;;9.80;41.90;;;;;;1740153;82;21300;-73
2021/03/06 08:50:48;;;;;;;7.53;3.33;;;9.70;41.40;;;;;;1740099;82;21605;-73
2021/03/06 08:53:17;;;;;;;6.45;3.65;;;9.80;41.30;;;;;;1774698;81;21141;-72
2021/03/06 08:55:51;;;;;;;6.42;3.40;;;10.00;41.80;;;;;;1769636;81;21736;-73
2021/03/06 08:58:19;;;;;;;7.22;3.30;;;10.10;41.30;;;;;;1774269;81;21121;-73
2021/03/06 09:00:54;;;;;;;7.22;3.85;;;9.90;41.00;;;;;;1774648;81;21165;-74
2021/03/06 09:03:28;;;;;;;9.75;4.10;;;8.60;42.70;;;;;;1774592;81;21160;-73
2021/03/06 09:05:59;;;;;;;8.13;3.58;;;8.20;44.50;;;;;;1774575;81;21124;-73
2021/03/06 09:08:28;;;;;;;6.37;3.22;;;8.00;45.20;;;;;;1775291;81;21143;-73
2021/03/06 09:10:59;;;;;;;7.65;3.95;;;7.80;45.90;;;;;;1774619;81;21600;-73
2021/03/06 09:13:31;;;;;;;6.95;3.77;;;7.50;46.10;;;;;;1774562;81;21675;-73
2021/03/06 09:16:12;;;;;;;7.42;3.30;;;7.20;47.40;;;;;;1771677;81;21140;-72
2021/03/06 09:18:40;;;;;;;8.55;3.50;;;7.20;47.30;;;;;;1774765;81;21293;-72
2021/03/06 09:21:25;;;;;;;8.73;3.33;;;6.70;47.60;;;;;;1773516;81;21267;-72
2021/03/06 09:24:02;;;;;;;;;;;6.10;48.40;;;;;;1777221;81;21113;-73
2021/03/06 09:26:30;;;;;;;8.53;3.83;;;6.00;49.90;;;;;;1774932;81;20156;-72
2021/03/06 09:28:58;;;;;;;8.53;3.80;;;5.80;50.40;;;;;;1775123;81;21164;-72
2021/03/06 09:31:31;;;;;;;8.80;3.45;;;5.60;50.40;;;;;;1774541;81;21148;-72
2021/03/06 09:34:03;;;;;;;7.58;3.40;;;5.80;50.80;;;;;;1774726;81;21151;-73
2021/03/06 09:36:32;;;;;;;5.95;2.90;;;5.80;50.20;;;;;;1774809;81;21291;-74
2021/03/06 09:39:05;;;;;;;8.35;3.45;;;5.80;49.30;;;;;;1774534;81;21218;-72
2021/03/06 09:41:38;;;;;;;7.42;3.42;;;5.60;49.90;;;;;;1774673;81;21580;-73
2021/03/06 09:44:09;;;;;;;7.12;3.10;;;5.50;50.40;;;;;;1774596;81;21156;-73
2021/03/06 09:46:38;;;;;;;8.95;3.27;;;5.50;50.70;;;;;;1774670;81;21152;-73
2021/03/06 09:49:14;;;;;;;8.70;4.97;;;5.50;50.80;;;;;;1774771;81;21702;-72
2021/03/06 09:51:55;;;;;;;7.22;3.25;;;5.50;50.80;;;;;;1765826;81;21188;-73
2021/03/06 09:54:26;;;;;;;9.35;3.92;;;5.60;50.20;;;;;;1738662;82;21139;-73
2021/03/06 09:57:01;;;;;;;7.53;3.95;;;5.50;49.50;;;;;;1738476;82;21136;-74
2021/03/06 09:59:38;;;;;;;6.72;3.30;;;5.60;49.90;;;;;;1738604;82;21125;-74
2021/03/06 10:02:09;;;;;;;6.93;2.43;;;5.80;49.70;;;;;;1738800;82;21279;-73
2021/03/06 10:04:38;;;;;;;7.33;2.65;;;5.90;46.80;;;;;;1738627;82;21152;-71
2021/03/06 10:07:11;;;;;;;8.68;3.22;;;6.10;46.40;;;;;;1738680;82;21286;-74
2021/03/06 10:09:40;;;;;;;4.87;2.75;;;6.00;46.70;;;;;;1738414;82;21131;-73
2021/03/06 10:12:16;;;;;;;8.05;3.47;;;5.70;46.60;;;;;;1738673;82;21168;-72
2021/03/06 10:14:51;;;;;;;7.28;3.02;;;5.40;46.10;;;;;;1738441;82;21108;-73
2021/03/06 10:17:25;;;;;;;7.60;2.50;;;5.50;46.90;;;;;;1734817;82;21280;-74
2021/03/06 10:19:55;;;;;;;6.33;2.60;;;5.50;45.50;;;;;;1738411;82;21149;-75
2021/03/06 10:22:23;;;;;;;6.95;2.95;;;5.70;45.70;;;;;;1738594;82;21160;-74
2021/03/06 10:25:04;;;;;;;9.50;2.65;;;5.70;44.60;;;;;;1738417;82;21160;-73
2021/03/06 10:27:46;;;;;;;10.90;2.60;;;5.60;44.00;;;;;;1738511;82;21709;-73
2021/03/06 10:30:25;;;;;;;5.35;2.45;;;5.70;44.50;;;;;;1738604;82;21306;-73
2021/03/06 10:33:01;;;;;;;5.80;2.80;;;5.90;45.70;;;;;;1738429;82;21148;-72
2021/03/06 10:35:42;;;;;;;7.75;2.87;;;6.10;44.30;;;;;;1738422;82;21131;-73
2021/03/06 10:38:25;;;;;;;7.05;2.67;;;6.20;44.40;;;;;;1738651;82;21666;-74
2021/03/06 10:41:02;;;;;;;6.62;3.65;;;6.30;44.60;;;;;;1738510;82;21586;-72
2021/03/06 10:43:40;;;;;;;7.45;3.60;;;6.30;44.30;;;;;;1738725;82;21717;-71
2021/03/06 10:46:21;;;;;;;8.90;3.40;;;6.10;44.90;;;;;;1738956;82;21141;-72
2021/03/06 10:49:03;;;;;;;10.82;3.67;;;5.70;45.30;;;;;;1738428;82;21432;-73
2021/03/06 10:51:54;;;;;;;6.72;2.52;;;5.80;45.90;;;;;;1712017;81;21165;-73
2021/03/06 10:54:24;;;;;;;7.40;2.90;;;5.80;45.10;;;;;;1738953;82;21291;-73
2021/03/06 10:57:06;;;;;;;5.60;2.72;;;6.00;45.40;;;;;;1738304;82;21152;-73
2021/03/06 10:59:36;;;;;;;6.90;2.65;;;6.00;43.90;;;;;;1738337;82;21156;-73
2021/03/06 11:02:07;;;;;;;6.62;2.83;;;6.20;43.90;;;;;;1738314;82;21151;-73
2021/03/06 11:04:38;;;;;;;7.55;2.87;;;6.20;43.50;;;;;;1738297;82;21144;-74
2021/03/06 11:07:09;;;;;;;8.55;3.67;;;6.20;43.70;;;;;;1738301;82;21128;-73
2021/03/06 11:09:41;;;;;;;8.00;3.87;;;6.30;43.10;;;;;;1738760;82;21172;-74
2021/03/06 11:12:19;;;;;;;6.90;2.95;;;6.20;43.20;;;;;;1738596;82;21153;-75
2021/03/06 11:15:11;;;;;;;10.98;4.00;;;6.20;43.20;;;;;;1738566;82;21539;-74
2021/03/06 11:17:42;;;;;;;5.90;2.87;;;6.10;43.40;;;;;;1735362;82;21172;-74
2021/03/06 11:20:15;;;;;;;5.60;2.40;;;6.10;41.00;;;;;;1738056;82;21168;-73
2021/03/06 11:22:44;;;;;;;6.97;2.70;;;6.10;40.10;;;;;;1738482;82;21222;-73
2021/03/06 11:25:14;;;;;;;6.00;2.85;;;5.90;39.80;;;;;;1738307;82;21156;-72
2021/03/06 11:27:51;;;;;;;4.87;2.55;;;5.80;40.30;;;;;;1738488;82;21172;-73
2021/03/06 11:30:36;;;;;;;6.87;2.62;;;5.80;40.90;;;;;;1738274;82;21606;-73
2021/03/06 11:33:09;;;;;;;4.12;2.25;;;5.60;40.70;;;;;;1738369;82;21116;-73
2021/03/06 11:35:46;;;;;;;4.78;2.40;;;5.50;40.90;;;;;;1738476;82;21113;-74
2021/03/06 11:38:18;;;;;;;10.78;2.90;;;5.60;41.10;;;;;;1738263;82;21120;-73
2021/03/06 11:40:49;;;;;;;4.87;2.17;;;5.60;41.90;;;;;;1738289;82;21101;-73
2021/03/06 11:43:19;;;;;;;5.58;2.65;;;5.80;42.60;;;;;;1738307;82;21144;-76
2021/03/06 11:45:48;;;;;;;5.97;2.77;;;5.90;42.20;;;;;;1738283;82;21163;-74
2021/03/06 11:48:16;;;;;;;4.35;2.30;;;5.90;41.70;;;;;;1738241;82;21155;-73
2021/03/06 11:50:49;;;;;;;4.58;2.17;;;5.90;40.40;;;;;;1738358;82;21184;-75
2021/03/06 11:53:23;;;;;;;5.40;2.22;;;5.90;41.00;;;;;;1756172;81;21185;-75
2021/03/06 11:55:51;;;;;;;5.33;2.42;;;5.80;39.80;;;;;;1763856;81;21169;-75
2021/03/06 11:58:21;;;;;;;6.45;2.35;;;5.90;40.00;;;;;;1763790;81;21141;-74
2021/03/06 12:00:50;;;;;;;8.00;2.55;;;5.90;40.70;;;;;;1763992;81;21153;-75
2021/03/06 12:03:19;;;;;;;5.35;2.20;;;5.80;38.90;;;;;;1758487;81;21156;-74
2021/03/06 12:05:48;;;;;;;4.37;2.00;;;5.70;39.10;;;;;;1763849;81;21184;-75
2021/03/06 12:08:16;;;;;;;4.08;1.90;;;5.60;38.20;;;;;;1763802;81;21192;-74
2021/03/06 12:10:44;;;;;;;5.58;2.20;;;5.60;37.30;;;;;;1763854;81;21588;-74
2021/03/06 12:13:16;;;;;;;4.25;2.00;;;5.60;37.00;;;;;;1750666;81;21145;-75
2021/03/06 12:15:49;;;;;;;7.17;3.80;;;5.70;35.90;;;;;;1763427;81;21161;-75
2021/03/06 12:18:17;;;;;;;3.90;2.27;;;5.80;37.10;;;;;;1763766;81;21180;-75
2021/03/06 12:20:46;;;;;;;4.80;2.02;;;5.90;37.40;;;;;;1763956;81;21173;-75
2021/03/06 12:23:15;;;;;;;4.33;1.60;;;6.10;37.50;;;;;;1764131;81;21137;-74
2021/03/06 12:25:50;;;;;;;3.12;1.72;;;6.20;35.60;;;;;;1764201;81;21157;-73
2021/03/06 12:28:18;;;;;;;4.08;1.70;;;6.10;35.30;;;;;;1763857;81;21189;-73
2021/03/06 12:30:47;;;;;;;3.58;1.70;;;6.10;35.20;;;;;;1763821;81;21164;-73
2021/03/06 12:33:15;;;;;;;3.25;1.47;;;6.10;35.00;;;;;;1764013;81;21583;-72
2021/03/06 12:35:44;;;;;;;4.35;1.85;;;5.90;34.30;;;;;;1763852;81;21133;-73
2021/03/06 12:38:12;;;;;;;5.20;2.20;;;5.80;35.10;;;;;;1763735;81;21180;-74
2021/03/06 12:40:40;;;;;;;6.15;2.08;;;5.80;35.80;;;;;;1764147;81;21181;-72
2021/03/06 12:43:10;;;;;;;4.85;1.87;;;5.70;35.70;;;;;;1763759;81;21121;-72
2021/03/06 12:45:39;;;;;;;3.60;1.75;;;5.70;36.00;;;;;;1763744;81;21215;-73
2021/03/06 12:48:09;;;;;;;3.62;1.62;;;5.70;36.40;;;;;;1763739;81;21164;-73
2021/03/06 12:50:38;;;;;;;3.85;1.60;;;5.80;36.90;;;;;;1763694;81;21173;-74
2021/03/06 12:53:06;;;;;;;4.20;1.62;;;5.90;35.90;;;;;;1763738;81;21192;-73
2021/03/06 12:55:34;;;;;;;3.80;2.02;;;5.90;34.90;;;;;;1763911;81;21161;-74
2021/03/06 12:58:03;;;;;;;4.35;2.05;;;5.90;34.60;;;;;;1763752;81;21161;-74
2021/03/06 13:00:31;;;;;;;4.17;1.72;;;5.80;34.30;;;;;;1763727;81;21148;-75
2021/03/06 13:03:05;;;;;;;3.45;1.37;;;5.70;34.60;;;;;;1763742;81;21567;-75
2021/03/06 13:05:34;;;;;;;3.67;1.42;;;5.80;34.60;;;;;;1763870;81;21161;-73
2021/03/06 13:08:03;;;;;;;5.05;1.62;;;5.80;34.10;;;;;;1764078;81;21113;-73
2021/03/06 13:10:38;;;;;;;3.07;1.63;;;5.80;33.90;;;;;;1764015;81;21588;-73
2021/03/06 13:13:06;;;;;;;3.65;1.65;;;5.80;34.30;;;;;;1763681;81;21130;-73
2021/03/06 13:15:35;;;;;;;3.72;1.75;;;5.80;33.80;;;;;;1763686;81;21169;-73
2021/03/06 13:18:04;;;;;;;3.80;1.57;;;5.80;33.60;;;;;;1763175;81;21165;-73
2021/03/06 13:20:34;;;;;;;3.47;1.57;;;5.80;33.00;;;;;;1763777;81;21603;-73
2021/03/06 13:23:05;;;;;;;3.55;1.57;;;5.80;33.30;;;;;;1762557;81;21137;-73